createdAt,value
2018-03-25T00:00:56.711Z,19.23
2018-03-25T00:03:24.181Z,17.70
2018-03-25T00:05:51.636Z,19.47
2018-03-25T00:08:19.114Z,21.30
2018-03-25T00:10:46.568Z,19.50
2018-03-25T00:13:14.024Z,20.70
2018-03-25T00:15:41.499Z,18.30
2018-03-25T00:18:08.956Z,22.13
2018-03-25T00:20:36.421Z,18.67
2018-03-25T00:23:04.637Z,21.33
2018-03-25T00:25:32.090Z,19.97
2018-03-25T00:27:59.580Z,17.70
2018-03-25T00:30:27.059Z,17.87
2018-03-25T00:32:54.525Z,18.20
2018-03-25T00:35:22.768Z,21.87
2018-03-25T00:37:50.242Z,22.17
2018-03-25T00:40:18.953Z,21.30
2018-03-25T00:42:47.181Z,18.60
2018-03-25T00:45:14.644Z,19.77
2018-03-25T00:47:42.885Z,18.53
2018-03-25T00:50:10.354Z,20.17
2018-03-25T00:52:37.830Z,19.67
2018-03-25T00:55:05.287Z,24.37
2018-03-25T00:57:32.738Z,21.57
2018-03-25T01:00:00.183Z,21.90
2018-03-25T01:02:27.645Z,20.43
2018-03-25T01:04:55.095Z,23.63
2018-03-25T01:07:22.561Z,19.63
2018-03-25T01:09:50.028Z,21.77
2018-03-25T01:12:17.478Z,24.20
2018-03-25T01:14:44.929Z,20.40
2018-03-25T01:17:12.419Z,21.37
2018-03-25T01:19:40.564Z,20.60
2018-03-25T01:22:08.801Z,22.10
2018-03-25T01:24:36.281Z,22.57
2018-03-25T01:27:03.758Z,22.37
2018-03-25T01:29:31.218Z,20.73
2018-03-25T01:31:58.683Z,22.27
2018-03-25T01:34:26.128Z,22.03
2018-03-25T01:36:53.572Z,23.37
2018-03-25T01:39:21.024Z,21.97
2018-03-25T01:41:48.477Z,21.10
2018-03-25T01:44:15.924Z,20.13
2018-03-25T01:46:43.374Z,24.17
2018-03-25T01:49:10.840Z,21.03
2018-03-25T01:51:38.333Z,24.27
2018-03-25T01:54:05.826Z,21.00
2018-03-25T01:56:34.035Z,21.67
2018-03-25T01:59:01.488Z,21.10
2018-03-25T02:01:28.944Z,22.83
2018-03-25T02:03:56.392Z,24.80
2018-03-25T02:06:23.843Z,21.73
2018-03-25T02:08:51.296Z,22.43
2018-03-25T02:11:19.611Z,21.43
2018-03-25T02:13:47.077Z,21.33
2018-03-25T02:16:14.548Z,22.03
2018-03-25T02:18:41.990Z,20.90
2018-03-25T02:21:09.479Z,26.33
2018-03-25T02:23:37.726Z,23.70
2018-03-25T02:26:05.167Z,21.27
2018-03-25T02:28:32.634Z,19.73
2018-03-25T02:31:00.105Z,24.47
2018-03-25T02:33:27.550Z,22.90
2018-03-25T02:35:55.006Z,21.80
2018-03-25T02:38:22.453Z,23.17
2018-03-25T02:40:49.920Z,21.23
2018-03-25T02:43:17.461Z,24.27
2018-03-25T02:45:44.915Z,25.00
2018-03-25T02:48:12.366Z,25.53
2018-03-25T02:50:39.844Z,21.87
2018-03-25T02:53:07.321Z,21.53
2018-03-25T02:55:34.812Z,22.50
2018-03-25T02:58:02.285Z,23.03
2018-03-25T03:00:29.750Z,21.40
2018-03-25T03:02:57.193Z,22.93
2018-03-25T03:05:24.659Z,22.90
2018-03-25T03:07:52.106Z,25.23
2018-03-25T03:10:19.553Z,23.43
2018-03-25T03:12:47.040Z,25.43
2018-03-25T03:15:14.514Z,24.20
2018-03-25T03:17:41.985Z,20.43
2018-03-25T03:20:09.440Z,22.33
2018-03-25T03:22:36.908Z,20.17
2018-03-25T03:25:05.144Z,21.83
2018-03-25T03:27:32.592Z,24.93
2018-03-25T03:30:00.075Z,21.37
2018-03-25T03:32:27.563Z,23.00
2018-03-25T03:34:55.805Z,24.10
2018-03-25T03:37:23.960Z,21.67
2018-03-25T03:39:51.428Z,25.57
2018-03-25T03:42:18.904Z,24.13
2018-03-25T03:44:46.397Z,23.67
2018-03-25T03:47:13.861Z,24.33
2018-03-25T03:49:41.311Z,22.07
2018-03-25T03:52:08.778Z,24.10
2018-03-25T03:54:36.221Z,24.13
2018-03-25T03:57:03.676Z,21.30
2018-03-25T03:59:31.908Z,23.23
2018-03-25T04:01:59.388Z,21.27
2018-03-25T04:04:27.604Z,23.40
2018-03-25T04:06:55.072Z,22.53
2018-03-25T04:09:22.556Z,21.30
2018-03-25T04:11:50.778Z,23.07
2018-03-25T04:14:18.246Z,23.53
2018-03-25T04:16:45.704Z,23.83
2018-03-25T04:19:13.142Z,22.67
2018-03-25T04:21:40.621Z,23.33
2018-03-25T04:24:08.100Z,23.97
2018-03-25T04:26:35.560Z,24.07
2018-03-25T04:29:03.025Z,20.90
2018-03-25T04:31:30.510Z,24.90
2018-03-25T04:33:58.770Z,24.80
2018-03-25T04:36:26.214Z,27.07
2018-03-25T04:38:53.665Z,22.23
2018-03-25T04:41:21.145Z,22.10
2018-03-25T04:43:48.609Z,22.53
2018-03-25T04:46:16.858Z,19.80
2018-03-25T04:48:44.325Z,24.47
2018-03-25T04:51:11.793Z,20.70
2018-03-25T04:53:39.241Z,23.27
2018-03-25T04:56:06.741Z,19.73
2018-03-25T04:58:34.176Z,24.57
2018-03-25T05:01:02.401Z,25.20
2018-03-25T05:03:29.844Z,21.53
2018-03-25T05:05:57.325Z,21.17
2018-03-25T05:08:24.775Z,20.70
2018-03-25T05:10:52.244Z,27.60
2018-03-25T05:13:19.708Z,23.23
2018-03-25T05:15:47.173Z,24.23
2018-03-25T05:18:14.640Z,21.43
2018-03-25T05:20:42.877Z,25.13
2018-03-25T05:23:10.326Z,25.03
2018-03-25T05:25:37.809Z,24.67
2018-03-25T05:28:05.360Z,22.97
2018-03-25T05:30:33.525Z,23.97
2018-03-25T05:33:00.969Z,22.73
2018-03-25T05:35:28.417Z,26.57
2018-03-25T05:37:55.873Z,23.90
2018-03-25T05:40:23.330Z,25.10
2018-03-25T05:42:50.768Z,19.97
2018-03-25T05:45:18.249Z,22.47
2018-03-25T05:47:45.695Z,21.50
2018-03-25T05:50:13.169Z,23.07
2018-03-25T05:52:40.632Z,23.27
2018-03-25T05:55:08.113Z,23.73
2018-03-25T05:57:35.588Z,24.73
2018-03-25T06:00:03.049Z,25.20
2018-03-25T06:02:31.269Z,24.13
2018-03-25T06:04:58.719Z,23.87
2018-03-25T06:07:26.185Z,26.20
2018-03-25T06:09:53.641Z,23.93
2018-03-25T06:12:21.094Z,23.90
2018-03-25T06:14:48.564Z,25.07
2018-03-25T06:17:16.034Z,22.63
2018-03-25T06:19:43.533Z,27.73
2018-03-25T06:22:10.969Z,26.97
2018-03-25T06:24:39.203Z,21.47
2018-03-25T06:27:06.661Z,22.27
2018-03-25T06:29:34.725Z,24.13
2018-03-25T06:32:02.253Z,22.87
2018-03-25T06:34:29.665Z,22.83
2018-03-25T06:36:57.121Z,22.87
2018-03-25T06:39:24.598Z,20.90
2018-03-25T06:41:52.949Z,19.63
2018-03-25T06:44:20.438Z,26.33
2018-03-25T06:46:47.886Z,21.20
2018-03-25T06:49:16.148Z,22.97
2018-03-25T06:51:43.620Z,22.17
2018-03-25T06:54:11.914Z,22.57
2018-03-25T06:56:39.348Z,21.27
2018-03-25T06:59:08.330Z,20.23
2018-03-25T07:01:35.795Z,22.17
2018-03-25T07:04:03.264Z,20.53
2018-03-25T07:06:31.502Z,21.50
2018-03-25T07:08:58.969Z,20.60
2018-03-25T07:11:26.412Z,21.87
2018-03-25T07:13:53.900Z,20.07
2018-03-25T07:16:22.140Z,22.43
2018-03-25T07:18:49.684Z,21.30
2018-03-25T07:21:17.171Z,21.10
2018-03-25T07:23:44.696Z,19.73
2018-03-25T07:26:12.147Z,20.50
2018-03-25T07:28:39.589Z,19.10
2018-03-25T07:31:07.096Z,19.37
2018-03-25T07:33:34.594Z,21.07
2018-03-25T07:36:02.830Z,19.13
2018-03-25T07:38:30.318Z,21.83
2018-03-25T07:40:58.521Z,17.37
2018-03-25T07:43:26.004Z,22.07
2018-03-25T07:45:53.464Z,23.67
2018-03-25T07:48:20.933Z,19.93
2018-03-25T07:50:48.425Z,19.90
2018-03-25T07:53:16.676Z,21.80
2018-03-25T07:55:44.140Z,18.50
2018-03-25T07:58:11.621Z,18.67
2018-03-25T08:00:39.085Z,17.43
2018-03-25T08:03:06.553Z,18.70
2018-03-25T08:05:34.025Z,20.63
2018-03-25T08:08:01.526Z,20.33
2018-03-25T08:10:28.998Z,20.23
2018-03-25T08:12:57.222Z,20.87
2018-03-25T08:15:24.660Z,18.63
2018-03-25T08:17:52.148Z,21.53
2018-03-25T08:20:19.626Z,20.80
2018-03-25T08:22:47.077Z,21.87
2018-03-25T08:25:14.552Z,21.10
2018-03-25T08:27:42.813Z,21.27
2018-03-25T08:30:10.286Z,19.47
2018-03-25T08:32:38.532Z,18.40
2018-03-25T08:35:06.014Z,18.77
2018-03-25T08:37:34.229Z,19.23
2018-03-25T08:40:01.710Z,18.30
2018-03-25T08:42:29.152Z,21.27
2018-03-25T08:44:56.613Z,21.67
2018-03-25T08:47:24.138Z,20.03
2018-03-25T08:49:51.612Z,20.03
2018-03-25T08:52:19.066Z,21.00
2018-03-25T08:54:46.546Z,22.33
2018-03-25T08:57:14.029Z,19.00
2018-03-25T08:59:41.481Z,20.60
2018-03-25T09:02:09.530Z,18.83
2018-03-25T09:04:36.984Z,20.60
2018-03-25T09:07:04.486Z,20.03
2018-03-25T09:09:32.750Z,24.63
2018-03-25T09:12:00.212Z,20.67
2018-03-25T09:14:28.471Z,22.67
2018-03-25T09:16:55.941Z,21.77
2018-03-25T09:19:23.430Z,24.73
2018-03-25T09:21:50.922Z,23.00
2018-03-25T09:24:18.393Z,20.57
2018-03-25T09:26:45.863Z,19.30
2018-03-25T09:29:13.317Z,21.43
2018-03-25T09:31:40.776Z,18.40
2018-03-25T09:34:08.263Z,19.50
2018-03-25T09:36:35.720Z,19.37
2018-03-25T09:39:03.216Z,20.10
2018-03-25T09:41:30.730Z,21.37
2018-03-25T09:43:58.212Z,25.23
2018-03-25T09:46:25.668Z,21.57
2018-03-25T09:48:53.130Z,20.97
2018-03-25T09:51:20.604Z,21.57
2018-03-25T09:53:48.091Z,21.37
2018-03-25T09:56:15.546Z,21.80
2018-03-25T09:58:43.062Z,23.77
2018-03-25T10:04:18.448Z,25.27
2018-03-25T10:06:45.950Z,22.97
2018-03-25T10:09:13.439Z,23.35
2018-03-25T10:11:40.932Z,22.33
2018-03-25T10:14:08.387Z,25.43
2018-03-25T10:16:35.872Z,24.35
2018-03-25T10:19:04.174Z,22.10
2018-03-25T10:21:31.634Z,26.85
2018-03-25T10:23:59.092Z,25.42
2018-03-25T10:26:26.588Z,23.83
2018-03-25T10:28:54.079Z,24.52
2018-03-25T10:31:22.317Z,26.95
2018-03-25T10:33:49.781Z,27.45
2018-03-25T10:36:17.251Z,27.50
2018-03-25T10:38:44.743Z,25.02
2018-03-25T10:41:12.209Z,25.58
2018-03-25T10:43:39.713Z,27.17
2018-03-25T10:46:07.244Z,24.48
2018-03-25T10:48:34.748Z,25.48
2018-03-25T10:51:02.981Z,25.20
2018-03-25T10:53:30.485Z,26.12
2018-03-25T10:55:58.716Z,24.37
2018-03-25T10:58:26.173Z,22.70
2018-03-25T11:00:53.639Z,25.37
2018-03-25T11:03:21.112Z,25.23
2018-03-25T11:05:48.613Z,29.02
2018-03-25T11:08:16.101Z,26.33
2018-03-25T11:10:43.587Z,26.98
2018-03-25T11:13:11.837Z,27.52
2018-03-25T11:15:39.316Z,23.50
2018-03-25T11:18:06.813Z,23.60
2018-03-25T11:20:34.684Z,24.55
2018-03-25T11:23:02.234Z,23.30
2018-03-25T11:25:29.779Z,26.83
2018-03-25T11:27:57.251Z,24.27
2018-03-25T11:30:24.721Z,23.60
2018-03-25T11:32:52.208Z,23.30
2018-03-25T11:35:19.718Z,26.20
2018-03-25T11:37:47.195Z,23.95
2018-03-25T11:40:14.705Z,26.33
2018-03-25T11:42:42.179Z,26.52
2018-03-25T11:45:10.426Z,25.85
2018-03-25T11:47:37.913Z,23.45
2018-03-25T11:50:05.407Z,28.38
2018-03-25T11:52:32.896Z,24.40
2018-03-25T11:55:00.403Z,26.27
2018-03-25T11:57:27.876Z,24.40
2018-03-25T11:59:55.339Z,26.48
2018-03-25T12:02:22.881Z,25.02
2018-03-25T12:04:50.381Z,22.95
2018-03-25T12:07:17.858Z,25.77
2018-03-25T12:09:47.036Z,23.40
2018-03-25T12:12:14.542Z,22.92
2018-03-25T12:14:42.163Z,27.02
2018-03-25T12:17:10.819Z,21.50
2018-03-25T12:19:38.559Z,21.42
2018-03-25T12:22:06.018Z,21.42
2018-03-25T12:24:33.528Z,22.00
2018-03-25T12:27:01.484Z,23.00
2018-03-25T12:29:28.972Z,23.85
2018-03-25T12:31:57.269Z,23.48
2018-03-25T12:34:24.754Z,24.75
2018-03-25T12:36:52.252Z,22.15
2018-03-25T12:39:20.492Z,21.75
2018-03-25T12:41:47.991Z,22.00
2018-03-25T12:44:16.256Z,21.52
2018-03-25T12:46:44.514Z,22.05
2018-03-25T12:49:12.029Z,22.10
2018-03-25T12:51:39.871Z,22.23
2018-03-25T12:54:07.377Z,21.58
2018-03-25T12:56:34.908Z,23.65
2018-03-25T12:59:02.400Z,24.23
2018-03-25T13:01:29.872Z,21.75
2018-03-25T13:03:57.394Z,23.38
2018-03-25T13:06:24.864Z,23.87
2018-03-25T13:08:52.328Z,24.70
2018-03-25T13:11:20.584Z,24.37
2018-03-25T13:13:48.061Z,24.45
2018-03-25T13:16:15.555Z,25.75
2018-03-25T13:18:43.771Z,24.58
2018-03-25T13:21:11.258Z,33.85
2018-03-25T13:23:38.810Z,23.17
2018-03-25T13:26:06.291Z,25.20
2018-03-25T13:28:33.771Z,23.80
2018-03-25T13:31:02.028Z,23.58
2018-03-25T13:33:30.267Z,20.17
2018-03-25T13:35:57.829Z,22.98
2018-03-25T13:38:25.301Z,22.23
2018-03-25T13:40:52.757Z,22.10
2018-03-25T13:43:20.218Z,23.52
2018-03-25T13:45:47.702Z,22.27
2018-03-25T13:48:15.960Z,23.13
2018-03-25T13:50:43.410Z,21.30
2018-03-25T13:53:10.898Z,28.67
2018-03-25T13:55:39.294Z,22.70
2018-03-25T13:58:06.861Z,23.63
2018-03-25T14:00:34.318Z,21.17
2018-03-25T14:03:01.835Z,22.40
2018-03-25T14:05:30.139Z,26.70
2018-03-25T14:07:57.623Z,23.90
2018-03-25T14:10:25.120Z,20.20
2018-03-25T14:12:52.631Z,23.87
2018-03-25T14:15:20.032Z,23.63
2018-03-25T14:17:48.406Z,21.07
2018-03-25T14:20:15.853Z,23.83
2018-03-25T14:22:43.341Z,21.43
2018-03-25T14:25:11.564Z,23.87
2018-03-25T14:27:39.033Z,24.07
2018-03-25T14:30:06.539Z,22.97
2018-03-25T14:32:34.009Z,24.37
2018-03-25T14:35:01.504Z,20.27
2018-03-25T14:37:28.983Z,20.07
2018-03-25T14:39:56.456Z,18.90
2018-03-25T14:42:24.728Z,20.23
2018-03-25T14:44:53.221Z,20.47
2018-03-25T14:47:20.733Z,19.43
2018-03-25T14:49:48.568Z,21.00
2018-03-25T14:52:16.057Z,20.77
2018-03-25T14:54:43.550Z,21.20
2018-03-25T14:57:11.076Z,21.50
2018-03-25T14:59:38.546Z,21.13
2018-03-25T15:02:06.043Z,21.60
2018-03-25T15:04:33.560Z,22.33
2018-03-25T15:07:01.823Z,20.80
2018-03-25T15:09:30.198Z,19.23
2018-03-25T15:11:57.710Z,23.17
2018-03-25T15:14:25.162Z,20.93
2018-03-25T15:16:52.650Z,19.13
2018-03-25T15:19:20.143Z,15.97
2018-03-25T15:21:47.677Z,17.23
2018-03-25T15:24:15.187Z,20.63
2018-03-25T15:26:42.725Z,19.63
2018-03-25T15:29:10.274Z,18.67
2018-03-25T15:31:37.813Z,19.33
2018-03-25T15:34:05.316Z,18.10
2018-03-25T15:36:32.830Z,18.60
2018-03-25T15:39:00.721Z,21.70
2018-03-25T15:41:28.308Z,23.50
2018-03-25T15:43:55.822Z,23.80
2018-03-25T15:46:23.928Z,20.73
2018-03-25T15:48:52.357Z,20.20
2018-03-25T15:51:19.851Z,22.13
2018-03-25T15:53:48.130Z,23.87
2018-03-25T15:56:16.440Z,21.43
2018-03-25T15:58:43.927Z,18.83
2018-03-25T16:01:12.148Z,19.63
2018-03-25T16:03:40.411Z,19.30
2018-03-25T16:06:08.714Z,19.00
2018-03-25T16:08:36.184Z,18.57
2018-03-25T16:11:03.705Z,17.63
2018-03-25T16:13:31.974Z,23.67
2018-03-25T16:15:59.495Z,18.47
2018-03-25T16:18:26.986Z,22.57
2018-03-25T16:20:54.490Z,36.43
2018-03-25T16:23:22.011Z,26.83
2018-03-25T16:25:50.266Z,46.60
2018-03-25T16:28:17.823Z,31.77
2018-03-25T16:30:46.019Z,26.70
2018-03-25T16:33:13.503Z,26.37
2018-03-25T16:35:41.073Z,26.23
2018-03-25T16:38:09.961Z,25.93
2018-03-25T16:40:37.876Z,26.10
2018-03-25T16:43:06.548Z,27.33
2018-03-25T16:45:35.022Z,24.63
2018-03-25T16:48:02.502Z,23.63
2018-03-25T16:50:30.033Z,23.70
2018-03-25T16:52:57.538Z,25.13
2018-03-25T16:55:25.834Z,27.17
2018-03-25T16:57:53.421Z,28.47
2018-03-25T17:00:21.317Z,26.40
2018-03-25T17:02:48.834Z,24.80
2018-03-25T17:05:16.387Z,27.83
2018-03-25T17:07:43.907Z,29.37
2018-03-25T17:10:12.171Z,28.80
2018-03-25T17:12:40.519Z,31.70
2018-03-25T17:15:09.185Z,32.00
2018-03-25T17:17:37.003Z,27.67
2018-03-25T17:20:04.666Z,31.90
2018-03-25T17:22:32.231Z,32.57
2018-03-25T17:25:01.969Z,29.30
2018-03-25T17:27:31.014Z,30.00
2018-03-25T17:29:59.291Z,27.07
2018-03-25T17:32:27.478Z,28.90
2018-03-25T17:34:56.607Z,29.43
2018-03-25T17:37:24.220Z,32.57
2018-03-25T17:39:51.798Z,28.23
2018-03-25T17:42:20.103Z,27.67
2018-03-25T17:44:51.234Z,27.57
2018-03-25T17:47:19.591Z,25.47
2018-03-25T17:49:48.858Z,23.73
2018-03-25T17:52:16.450Z,25.60
2018-03-25T17:54:43.927Z,25.27
2018-03-25T17:57:12.405Z,24.07
2018-03-25T17:59:40.255Z,25.07
2018-03-25T18:02:12.292Z,26.80
2018-03-25T18:04:40.013Z,24.90
2018-03-25T18:07:07.807Z,24.90
2018-03-25T18:09:35.998Z,26.67
2018-03-25T18:12:03.806Z,28.63
2018-03-25T18:14:32.885Z,26.73
2018-03-25T18:17:02.365Z,27.00
2018-03-25T18:19:31.532Z,24.37
2018-03-25T18:21:59.359Z,31.00
2018-03-25T18:24:27.780Z,29.53
2018-03-25T18:26:56.031Z,30.70
2018-03-25T18:29:24.337Z,29.53
2018-03-25T18:31:52.699Z,30.73
2018-03-25T18:34:20.197Z,31.50
2018-03-25T18:36:47.780Z,31.33
2018-03-25T18:39:16.060Z,31.73
2018-03-25T18:41:45.247Z,32.27
2018-03-25T18:44:13.684Z,29.90
2018-03-25T18:46:41.240Z,31.73
2018-03-25T18:49:08.871Z,33.57
2018-03-25T18:51:38.162Z,30.40
2018-03-25T18:54:08.280Z,32.70
2018-03-25T18:56:36.561Z,34.10
2018-03-25T18:59:05.020Z,34.30
2018-03-25T19:01:33.629Z,33.20
2018-03-25T19:04:02.651Z,34.17
2018-03-25T19:06:31.087Z,36.23
2018-03-25T19:09:03.825Z,32.13
2018-03-25T19:11:33.119Z,35.20
2018-03-25T19:14:01.440Z,36.47
2018-03-25T19:16:41.373Z,33.97
2018-03-25T19:19:11.336Z,36.53
2018-03-25T19:21:39.453Z,33.03
2018-03-25T19:24:09.423Z,32.70
2018-03-25T19:26:38.248Z,31.73
2018-03-25T19:29:07.395Z,32.73
2018-03-25T19:31:36.172Z,32.03
2018-03-25T19:34:04.940Z,34.73
2018-03-25T19:36:34.403Z,34.30
2018-03-25T19:39:03.888Z,33.97
2018-03-25T19:41:35.001Z,32.27
2018-03-25T19:44:03.341Z,31.50
2018-03-25T19:46:30.971Z,33.97
2018-03-25T19:48:58.532Z,34.23
2018-03-25T19:51:28.546Z,35.70
2018-03-25T19:53:57.291Z,35.57
2018-03-25T19:56:26.676Z,38.50
2018-03-25T19:58:54.982Z,38.63
2018-03-25T20:01:22.507Z,37.27
2018-03-25T20:03:54.104Z,39.37
2018-03-25T20:06:23.733Z,38.67
2018-03-25T20:08:52.935Z,42.53
2018-03-25T20:11:21.435Z,41.50
2018-03-25T20:13:50.462Z,39.67
2018-03-25T20:16:20.648Z,38.83
2018-03-25T20:18:50.328Z,36.77
2018-03-25T20:21:17.938Z,40.37
2018-03-25T20:23:47.501Z,37.67
2018-03-25T20:26:15.912Z,39.87
2018-03-25T20:28:46.868Z,37.17
2018-03-25T20:31:14.404Z,41.13
2018-03-25T20:33:42.597Z,41.67
2018-03-25T20:36:11.069Z,41.50
2018-03-25T20:38:38.630Z,38.87
2018-03-25T20:41:06.951Z,39.63
2018-03-25T20:43:34.515Z,38.43
2018-03-25T20:46:07.282Z,40.13
2018-03-25T20:48:35.722Z,42.80
2018-03-25T20:51:03.248Z,44.80
2018-03-25T20:53:30.762Z,40.93
2018-03-25T20:55:59.636Z,44.63
2018-03-25T20:58:30.750Z,42.47
2018-03-25T21:00:59.520Z,43.23
2018-03-25T21:03:27.045Z,43.77
2018-03-25T21:05:56.472Z,44.13
2018-03-25T21:08:23.973Z,43.73
2018-03-25T21:10:51.809Z,44.20
2018-03-25T21:13:20.444Z,44.10
2018-03-25T21:15:49.380Z,48.30
2018-03-25T21:18:17.512Z,53.00
2018-03-25T21:20:45.736Z,46.63
2018-03-25T21:23:13.778Z,41.77
2018-03-25T21:25:41.322Z,47.40
2018-03-25T21:28:10.306Z,41.90
2018-03-25T21:30:39.707Z,41.67
2018-03-25T21:33:08.245Z,40.73
2018-03-25T21:35:36.014Z,39.37
2018-03-25T21:38:04.124Z,41.70
2018-03-25T21:40:31.631Z,43.17
2018-03-25T21:42:59.154Z,45.73
2018-03-25T21:45:27.414Z,50.57
2018-03-25T21:47:55.730Z,46.40
2018-03-25T21:50:23.209Z,44.07
2018-03-25T21:52:50.692Z,44.83
2018-03-25T21:55:19.010Z,43.47
2018-03-25T21:57:46.892Z,41.07
2018-03-25T22:00:14.665Z,41.80
2018-03-25T22:02:42.227Z,44.57
2018-03-25T22:05:11.203Z,42.87
2018-03-25T22:07:39.274Z,41.87
2018-03-25T22:10:06.761Z,45.30
2018-03-25T22:12:34.271Z,47.57
2018-03-25T22:15:01.768Z,43.70
2018-03-25T22:17:29.311Z,43.10
2018-03-25T22:19:56.815Z,45.37
2018-03-25T22:22:24.292Z,40.20
2018-03-25T22:24:52.566Z,44.00
2018-03-25T22:27:20.810Z,40.97
2018-03-25T22:29:48.308Z,43.17
2018-03-25T22:32:16.581Z,42.00
2018-03-25T22:34:44.860Z,40.77
2018-03-25T22:37:13.100Z,43.93
2018-03-25T22:39:40.559Z,41.17
2018-03-25T22:42:08.950Z,44.27
2018-03-25T22:44:36.405Z,44.97
2018-03-25T22:47:03.890Z,40.90
2018-03-25T22:49:31.357Z,41.90
2018-03-25T22:51:58.802Z,40.20
2018-03-25T22:54:26.270Z,41.30
2018-03-25T22:56:53.745Z,46.47
2018-03-25T22:59:21.197Z,47.03
2018-03-25T23:01:48.677Z,41.13
2018-03-25T23:04:16.132Z,42.90
2018-03-25T23:06:43.608Z,41.10
2018-03-25T23:09:11.057Z,40.53
2018-03-25T23:11:38.535Z,39.97
2018-03-25T23:14:06.758Z,39.67
2018-03-25T23:16:34.245Z,39.13
2018-03-25T23:19:01.721Z,39.83
2018-03-25T23:21:29.201Z,37.47
2018-03-25T23:23:56.651Z,40.70
2018-03-25T23:26:24.891Z,38.27
2018-03-25T23:28:52.349Z,40.53
2018-03-25T23:31:19.816Z,39.10
2018-03-25T23:33:47.288Z,38.43
2018-03-25T23:36:15.535Z,43.00
2018-03-25T23:38:42.998Z,42.60
2018-03-25T23:41:10.449Z,45.47
2018-03-25T23:43:37.923Z,40.37
2018-03-25T23:46:05.388Z,45.73
2018-03-25T23:48:33.604Z,39.97
2018-03-25T23:51:01.073Z,39.27
2018-03-25T23:53:28.560Z,37.43
2018-03-25T23:55:56.032Z,43.00
2018-03-25T23:58:24.277Z,43.10
